Latest Weather Observations for Dennes Point

IDT60801

Issued at 7:02 am EDT Saturday 7 March 2015 (issued every 30 minutes, with the page automatically refreshed every 10 minutes)

About weather observations | Map of weather stations | Latest weather observations for TAS | Other Formats
Station Details ID: 094255 Name: DENNES POINT Lat: -43.06 Lon: 147.36 Height: 5.67 m
Data from the previous 72 hours. | See also: Recent months at Dennes Point
Date/Time
EDT
Temp
°C
App
Temp
°C
Dew
Point
Rel
Hum
%
Delta-T
°C
Wind Press
QNH
hPa
Press
MSL
hPa
Rain
since 9 am
mm
Dir
 
Spd
km/h
Gust
km/h
Spd
kts
Gust
kts
07/07:00am 12.9 8.6 7.8 71 2.5 NNE 20 24 11 13 1001.8 1001.8 1.2
07/06:30am 13.0 8.1 8.5 74 2.3 NNE 24 28 13 15 1001.9 1001.9 1.2
07/06:00am 12.8 9.4 7.5 70 2.6 N 15 22 8 12 1002.3 1002.2 1.2
07/05:30am 12.4 9.8 6.2 66 2.9 N 9 15 5 8 1002.4 1002.3 1.2
07/05:00am 11.9 9.0 4.9 62 3.2 NNW 9 13 5 7 1003.1 1003.0 1.2
07/04:30am 11.6 9.6 6.1 69 2.6 N 6 9 3 5 1003.4 1003.3 1.2
07/04:00am 10.9 10.0 6.1 72 2.2 CALM 0 0 0 0 1003.8 1003.7 1.2
07/03:30am 10.1 8.0 5.9 75 1.9 SSW 6 7 3 4 1004.3 1004.2 1.2
07/03:00am 10.2 7.2 5.8 74 2.0 WSW 11 15 6 8 1004.7 1004.6 1.2
07/02:30am 11.6 7.9 6.3 70 2.5 N 15 20 8 11 1005.1 1005.0 1.2
07/02:00am 11.9 9.0 6.6 70 2.5 N 11 15 6 8 1005.4 1005.3 1.2
07/01:30am 11.9 8.7 7.0 72 2.3 N 13 20 7 11 1006.0 1005.9 1.2
07/01:00am 12.2 7.7 7.1 71 2.5 N 20 26 11 14 1006.4 1006.3 1.2
07/12:30am 11.4 8.2 6.9 74 2.1 NNW 13 17 7 9 1006.7 1006.6 1.2
07/12:00am 9.7 7.6 5.7 76 1.8 SW 6 7 3 4 1007.1 1007.0 1.2
 
Date/Time
EDT
Temp
°C
App
Temp
°C
Dew
Point
Rel
Hum
%
Delta-T
°C
Wind Press
QNH
hPa
Press
MSL
hPa
Rain
since 9 am
mm
Dir
 
Spd
km/h
Gust
km/h
Spd
kts
Gust
kts
06/11:30pm 9.7 7.5 5.3 74 2.0 SW 6 7 3 4 1007.3 1007.2 1.2
06/11:00pm 9.5 6.3 5.3 75 1.9 SSW 11 15 6 8 1007.3 1007.2 1.2
06/10:30pm 9.2 6.8 5.2 76 1.8 SSW 7 9 4 5 1007.7 1007.6 1.2
06/10:00pm 9.8 7.6 5.2 73 2.1 SSE 6 6 3 3 1008.0 1007.9 1.2
06/09:30pm 10.5 8.1 5.3 70 2.4 SE 7 9 4 5 1007.8 1007.7 1.2
06/09:00pm 10.7 8.2 5.0 68 2.6 SSE 7 11 4 6 1007.4 1007.3 1.2
06/08:30pm 10.9 8.2 5.4 69 2.5 S 9 13 5 7 1007.0 1006.9 1.2
06/08:00pm 11.5 8.0 5.6 67 2.7 S 13 20 7 11 1006.5 1006.4 1.2
06/07:30pm 12.3 8.3 5.0 61 3.4 S 15 24 8 13 1006.1 1006.0 1.2
06/07:00pm 12.9 9.3 4.8 58 3.7 S 13 20 7 11 1005.9 1005.8 1.2
06/06:30pm 13.8 10.1 4.4 53 4.3 S 13 19 7 10 1005.4 1005.3 1.2
06/06:00pm 14.3 9.8 4.0 50 4.7 SSW 17 26 9 14 1005.1 1005.0 1.2
06/05:30pm 14.8 10.4 4.5 50 4.8 SSW 17 24 9 13 1005.2 1005.1 1.2
06/05:00pm 14.7 9.7 4.4 50 4.8 SSW 20 32 11 17 1005.2 1005.1 1.2
06/04:30pm 14.1 8.4 3.0 47 5.0 SSW 22 33 12 18 1004.9 1004.8 1.2
06/04:00pm 14.9 9.3 3.4 46 5.2 SSW 22 39 12 21 1004.7 1004.6 1.2
06/03:30pm 14.1 7.8 3.6 49 4.8 SSW 26 35 14 19 1004.7 1004.6 1.2
06/03:00pm 15.0 8.1 2.5 43 5.6 SSW 28 43 15 23 1004.7 1004.6 1.2
06/02:30pm 14.5 8.4 2.7 45 5.3 SW 24 39 13 21 1004.6 1004.5 1.2
06/02:00pm 14.8 8.4 5.1 52 4.6 SW 28 39 15 21 1004.4 1004.3 1.2
06/01:30pm 13.3 7.1 4.5 55 4.0 SW 26 41 14 22 1004.1 1004.0 1.2
06/01:00pm 13.2 5.6 4.1 54 4.2 SW 33 48 18 26 1003.6 1003.5 1.2
06/12:30pm 13.4 6.7 5.6 59 3.7 SW 30 43 16 23 1003.6 1003.5 1.2
06/12:00pm 12.4 6.0 7.1 70 2.6 SW 30 41 16 22 1003.6 1003.5 1.2
06/11:48am 10.9 4.7 6.1 72 2.2 SW 28 50 15 27 1003.5 1003.4 1.2
06/11:30am 11.8 6.8 6.3 69 2.6 SW 22 35 12 19 1003.1 1003.0 1.2
06/11:00am 9.8 3.8 6.9 82 1.4 SW 28 44 15 24 1002.7 1002.6 1.0
06/10:45am 10.7 4.4 5.9 72 2.2 SW 28 50 15 27 1002.5 1002.4 0.4
06/10:30am 11.4 5.0 6.9 74 2.1 SW 30 43 16 23 1001.9 1001.9 0.4
06/10:00am 10.7 3.4 7.0 78 1.8 WSW 35 44 19 24 1001.4 1001.4 0.0
06/09:30am 11.6 2.5 6.1 69 2.6 WSW 43 56 23 30 1000.6 1000.6 0.0
06/09:13am 10.9 2.9 5.9 71 2.3 SW 37 56 20 30 1000.4 1000.4 0.0
06/09:00am 11.0 2.5 5.3 68 2.6 WSW 39 50 21 27 999.9 999.9 0.6
06/08:30am 11.8 3.0 5.4 65 3.0 WSW 41 54 22 29 999.1 999.1 0.6
06/08:03am 11.7 3.1 4.7 62 3.2 WSW 39 59 21 32 998.4 998.4 0.6
06/08:00am 11.5 3.2 4.3 61 3.3 WSW 37 50 20 27 998.3 998.3 0.6
06/07:45am 11.7 2.8 5.3 65 2.9 WSW 41 61 22 33 997.9 997.9 0.6
06/07:30am 11.6 3.1 5.0 64 3.0 WSW 39 54 21 29 997.5 997.5 0.6
06/07:00am 11.6 2.6 4.6 62 3.2 WSW 41 54 22 29 996.4 996.4 0.6
06/06:50am 11.6 4.2 5.0 64 3.0 WSW 33 59 18 32 996.2 996.2 0.6
06/06:30am 11.7 5.1 6.0 68 2.7 SW 30 44 16 24 996.0 996.0 0.6
06/06:00am 12.0 2.9 6.1 67 2.8 WSW 43 67 23 36 995.1 995.1 0.6
06/05:30am 12.5 5.0 6.3 66 2.9 SW 35 57 19 31 994.4 994.4 0.6
06/05:21am 12.7 6.7 7.2 69 2.7 SW 28 59 15 32 994.1 994.1 0.6
06/05:00am 12.6 6.8 7.9 73 2.3 SW 28 44 15 24 994.0 994.0 0.6
06/04:30am 12.7 4.9 8.2 74 2.2 SW 39 67 21 36 993.2 993.2 0.6
06/04:01am 12.9 7.1 9.5 80 1.7 SW 30 48 16 26 992.4 992.4 0.6
06/04:00am 12.8 7.0 9.6 81 1.6 SW 30 48 16 26 992.4 992.4 0.6
06/03:49am 12.6 7.5 10.5 87 1.1 SW 28 48 15 26 992.3 992.3 0.4
06/03:30am 13.6 8.8 10.2 80 1.8 SW 26 37 14 20 992.0 992.0 0.0
06/03:02am 14.7 7.9 9.3 70 2.8 WSW 35 54 19 29 991.3 991.3 0.0
06/03:00am 14.7 7.5 9.3 70 2.8 WSW 37 54 20 29 991.2 991.2 0.0
06/02:30am 15.0 5.3 9.1 68 3.0 WSW 50 69 27 37 990.8 990.8 0.0
06/02:00am 15.2 5.8 8.9 66 3.2 W 48 70 26 38 990.9 990.9 0.0
06/01:32am 14.8 6.9 9.2 69 2.9 W 41 65 22 35 991.3 991.3 0.0
06/01:30am 14.5 6.8 8.7 68 2.9 W 39 56 21 30 991.4 991.4 0.0
06/01:14am 14.4 7.2 9.0 70 2.7 W 37 59 20 32 991.4 991.4 0.0
06/01:00am 14.0 5.4 8.8 71 2.7 WSW 44 63 24 34 991.3 991.3 0.0
06/12:30am 14.5 5.5 8.9 69 2.8 W 46 70 25 38 991.4 991.4 0.0
06/12:00am 14.0 7.3 8.2 68 2.9 W 33 56 18 30 992.4 992.4 0.0
 
Date/Time
EDT
Temp
°C
App
Temp
°C
Dew
Point
Rel
Hum
%
Delta-T
°C
Wind Press
QNH
hPa
Press
MSL
hPa
Rain
since 9 am
mm
Dir
 
Spd
km/h
Gust
km/h
Spd
kts
Gust
kts
05/11:30pm 13.5 6.8 8.1 70 2.7 W 33 54 18 29 993.3 993.3 0.0
05/11:23pm 13.5 6.7 7.9 69 2.8 W 33 54 18 29 993.2 993.2 0.0
05/11:00pm 13.4 8.3 7.6 68 2.9 WNW 24 37 13 20 994.2 994.2 0.0
05/10:30pm 12.9 8.4 6.9 67 2.9 WNW 20 30 11 16 995.1 995.1 0.0
05/10:00pm 13.1 8.5 6.7 65 3.1 W 20 30 11 16 996.3 996.3 0.0
05/09:30pm 12.7 8.1 5.8 63 3.2 W 19 35 10 19 997.0 997.0 0.0
05/09:00pm 12.4 7.8 5.8 64 3.1 WNW 19 33 10 18 997.8 997.8 0.0
05/08:30pm 12.0 7.3 5.2 63 3.1 WNW 19 32 10 17 998.1 998.1 0.0
05/08:00pm 12.0 7.1 5.2 63 3.2 WNW 20 32 11 17 998.8 998.8 0.0
05/07:30pm 11.8 6.0 4.5 61 3.3 W 24 33 13 18 999.4 999.4 0.0
05/07:00pm 12.1 6.7 4.3 59 3.5 WNW 22 32 12 17 1000.0 1000.0 0.0
05/06:35pm 12.5 5.8 5.4 62 3.3 W 30 50 16 27 1000.3 1000.3 0.0
05/06:30pm 12.3 5.0 4.3 58 3.6 W 32 50 17 27 1000.4 1000.4 0.0
05/06:27pm 12.4 5.8 4.4 58 3.6 WNW 28 48 15 26 1000.5 1000.5 0.0
05/06:00pm 12.3 6.7 3.5 55 3.9 WNW 22 32 12 17 1001.0 1001.0 0.0
05/05:30pm 12.4 5.4 4.1 57 3.7 W 30 48 16 26 1001.7 1001.7 0.0
05/05:01pm 13.2 5.3 4.6 56 3.9 W 35 67 19 36 1001.8 1001.8 0.0
05/05:00pm 13.3 5.8 4.2 54 4.2 W 33 46 18 25 1001.9 1001.9 0.0
05/04:30pm 13.9 7.8 4.8 54 4.2 W 26 39 14 21 1002.5 1002.4 0.0
05/04:21pm 14.1 6.6 4.4 52 4.5 W 33 52 18 28 1002.9 1002.8 0.0
05/04:12pm 13.1 5.0 3.5 52 4.3 W 35 50 19 27 1003.2 1003.1 0.0
05/04:09pm 13.4 5.0 3.8 52 4.3 W 37 50 20 27 1003.1 1003.0 0.0
05/04:00pm 12.6 5.3 5.5 62 3.3 W 33 48 18 26 1003.4 1003.3 0.0
05/03:36pm 13.9 7.2 5.5 57 4.0 W 30 50 16 27 1003.9 1003.8 0.0
05/03:30pm 13.0 5.2 4.7 57 3.8 W 35 50 19 27 1004.1 1004.0 0.0
05/03:13pm 12.4 3.0 4.6 59 3.6 W 43 56 23 30 1004.5 1004.4 0.0
05/03:00pm 13.3 4.9 3.9 53 4.3 WSW 37 52 20 28 1004.4 1004.3 0.0
05/02:43pm 13.8 5.2 4.9 55 4.1 WSW 39 61 21 33 1004.8 1004.7 0.0
05/02:30pm 14.3 6.9 4.9 53 4.4 WSW 33 50 18 27 1005.1 1005.0 0.0
05/02:00pm 13.0 3.2 5.4 60 3.6 WSW 46 63 25 34 1005.5 1005.4 0.0
05/01:57pm 13.5 4.8 5.9 60 3.6 WSW 41 63 22 34 1005.3 1005.2 0.0
05/01:55pm 13.5 5.4 5.4 58 3.8 WSW 37 54 20 29 1005.2 1005.1 0.0
05/01:30pm 14.4 8.5 6.0 57 4.0 WSW 26 33 14 18 1005.6 1005.5 0.0
05/01:00pm 14.0 6.2 4.9 54 4.2 WSW 35 50 19 27 1006.1 1006.0 0.0
05/12:30pm 13.9 6.4 4.5 53 4.3 WSW 33 44 18 24 1006.1 1006.0 0.0
05/12:00pm 12.0 2.3 4.0 58 3.6 WSW 44 65 24 35 1006.4 1006.3 0.0
05/11:56am 12.6 3.1 3.8 55 3.9 WSW 43 65 23 35 1006.1 1006.0 0.0
05/11:30am 13.5 5.5 3.6 51 4.5 WSW 35 46 19 25 1005.9 1005.8 0.0
05/11:00am 12.8 5.4 4.0 55 4.0 SW 32 57 17 31 1006.0 1005.9 0.0
05/10:51am 12.3 5.5 3.3 54 4.0 WSW 28 48 15 26 1006.0 1005.9 0.0
05/10:30am 11.7 4.4 4.7 62 3.2 SW 32 43 17 23 1006.1 1006.0 0.0
05/10:01am 11.2 2.8 3.7 60 3.3 WSW 37 56 20 30 1005.7 1005.6 0.0
05/10:00am 11.1 3.1 3.6 60 3.3 WSW 35 54 19 29 1005.7 1005.6 0.0
05/09:58am 11.5 3.8 3.5 58 3.5 WSW 33 54 18 29 1005.6 1005.5 0.0
05/09:30am 10.8 3.7 3.4 60 3.2 WSW 30 39 16 21 1005.2 1005.1 0.0
05/09:00am 9.8 1.7 3.1 63 2.9 WSW 35 50 19 27 1004.7 1004.6 2.4
05/08:46am 10.2 2.7 4.6 68 2.5 WSW 33 59 18 32 1004.7 1004.6 2.4
05/08:30am 9.5 3.0 4.9 73 2.1 WSW 28 35 15 19 1004.1 1004.0 2.4
05/08:00am 9.3 3.1 4.5 72 2.1 SW 26 35 14 19 1003.6 1003.5 2.4
05/07:30am 9.1 0.9 4.5 73 2.0 WSW 37 54 20 29 1002.6 1002.5 2.4
05/07:00am 8.6 0.8 5.0 78 1.6 WSW 35 44 19 24 1001.5 1001.5 2.4
05/06:30am 8.4 1.9 4.8 78 1.6 WSW 28 37 15 20 1000.7 1000.7 2.2
05/06:00am 8.6 0.2 5.4 80 1.4 WSW 39 54 21 29 1000.3 1000.3 2.2
05/05:51am 8.8 2.4 5.0 77 1.7 WSW 28 54 15 29 1000.0 1000.0 2.0
05/05:49am 8.8 3.5 5.0 77 1.7 WSW 22 44 12 24 1000.0 1000.0 2.0
05/05:30am 8.1 4.9 5.0 81 1.4 W 11 20 6 11 999.5 999.5 2.0
05/05:00am 8.5 3.3 5.6 82 1.3 SW 22 33 12 18 999.3 999.3 2.0
05/04:30am 8.6 3.4 5.5 81 1.4 WSW 22 28 12 15 998.6 998.6 1.4
05/04:00am 8.8 3.3 5.9 82 1.3 WSW 24 33 13 18 998.4 998.4 1.2
05/03:30am 9.8 4.1 6.5 80 1.5 WSW 26 39 14 21 998.1 998.1 0.2
05/03:00am 10.0 4.7 5.2 72 2.2 WSW 22 32 12 17 997.1 997.1 0.0
05/02:30am 10.7 7.7 6.1 73 2.1 SSW 11 24 6 13 997.1 997.1 0.0
05/02:00am 10.9 7.2 6.3 73 2.2 W 15 22 8 12 996.8 996.8 0.0
05/01:30am 11.1 8.6 6.5 73 2.2 SSW 9 13 5 7 997.1 997.1 0.0
05/01:00am 11.6 6.8 7.3 75 2.1 WSW 22 33 12 18 997.1 997.1 0.0
05/12:30am 11.8 6.0 7.9 77 1.9 W 28 37 15 20 996.5 996.5 0.0
05/12:00am 12.4 3.7 7.9 74 2.2 WSW 43 57 23 31 996.0 996.0 0.0
 
Date/Time
EDT
Temp
°C
App
Temp
°C
Dew
Point
Rel
Hum
%
Delta-T
°C
Wind Press
QNH
hPa
Press
MSL
hPa
Rain
since 9 am
mm
Dir
 
Spd
km/h
Gust
km/h
Spd
kts
Gust
kts
04/11:51pm 12.8 4.1 7.5 70 2.6 W 43 57 23 31 996.0 996.0 0.0
04/11:30pm 13.9 7.3 7.7 66 3.1 W 32 39 17 21 995.6 995.6 0.0
04/11:02pm 13.0 7.5 9.1 77 2.0 WSW 28 48 15 26 995.8 995.8 0.0
04/11:00pm 13.1 6.6 9.0 76 2.1 WSW 33 48 18 26 995.9 995.9 0.0
04/10:30pm 15.7 9.9 8.0 60 3.9 W 28 43 15 23 996.1 996.1 0.0
04/10:00pm 15.9 9.1 7.1 56 4.4 W 32 41 17 22 996.4 996.4 0.0
04/09:30pm 15.7 10.9 7.2 57 4.2 W 22 33 12 18 996.4 996.4 0.0
04/09:11pm 15.7 8.9 7.7 59 4.0 W 33 52 18 28 996.4 996.4 0.0
04/09:00pm 16.0 9.3 7.5 57 4.3 W 32 43 17 23 996.4 996.4 0.0
04/08:32pm 16.2 10.2 7.2 55 4.5 WNW 28 52 15 28 997.0 997.0 0.0
04/08:30pm 16.1 11.1 8.1 59 4.0 WNW 24 44 13 24 997.0 997.0 0.0
04/08:16pm 16.0 10.0 8.5 61 3.8 WNW 30 48 16 26 996.7 996.7 0.0
04/08:00pm 16.1 10.5 8.6 61 3.9 WNW 28 37 15 20 997.2 997.2 0.0
04/07:30pm 16.9 12.9 8.3 57 4.4 WNW 19 35 10 19 997.0 997.0 0.0
04/07:00pm 17.4 14.4 7.7 53 4.9 WNW 13 30 7 16 997.3 997.3 0.0
04/06:30pm 17.7 11.0 8.3 54 4.8 WNW 33 50 18 27 997.8 997.8 0.0
04/06:00pm 18.4 11.1 8.9 54 5.0 W 37 48 20 26 998.2 998.2 0.0
04/05:33pm 18.9 11.9 7.0 46 6.0 WNW 33 52 18 28 998.1 998.1 0.0
04/05:30pm 18.9 11.6 7.4 47 5.8 WNW 35 52 19 28 998.0 998.0 0.0
04/05:00pm 19.8 11.7 7.2 44 6.4 W 39 59 21 32 997.9 997.9 0.0
04/04:30pm 20.1 13.4 7.5 44 6.5 WNW 32 54 17 29 998.4 998.4 0.0
04/04:00pm 19.7 13.7 8.7 49 5.8 W 30 52 16 28 998.8 998.8 0.0
04/03:36pm 19.9 12.1 8.3 47 6.0 W 39 57 21 31 999.3 999.3 0.0
04/03:30pm 19.8 11.0 8.2 47 6.0 W 44 57 24 31 999.3 999.3 0.0
04/03:00pm 20.9 12.6 10.1 50 5.9 W 44 67 24 36 999.9 999.9 0.0
04/02:39pm 19.7 14.3 7.8 46 6.1 WNW 26 70 14 38 999.6 999.6 0.0
04/02:38pm 19.8 14.9 8.5 48 5.9 WNW 24 56 13 30 999.8 999.8 0.0
04/02:30pm 20.2 16.3 8.5 47 6.1 W 19 35 10 19 1000.2 1000.2 0.0
04/02:00pm 19.5 15.9 10.0 54 5.1 W 19 32 10 17 1000.0 1000.0 0.0
04/01:38pm 19.2 15.9 9.7 54 5.0 NW 17 39 9 21 1000.0 1000.0 0.0
04/01:30pm 18.7 17.0 9.8 56 4.7 ENE 9 20 5 11 1000.4 1000.4 0.0
04/01:00pm 17.8 16.8 10.2 61 4.1 NW 6 7 3 4 1000.5 1000.5 0.0
04/12:30pm 17.7 13.7 10.6 63 3.8 WSW 22 32 12 17 1001.0 1001.0 0.0
04/12:00pm 15.9 13.4 10.9 72 2.7 SW 15 26 8 14 1002.1 1002.0 0.0
04/11:30am 18.3 13.5 10.4 60 4.2 W 26 35 14 19 1001.7 1001.7 0.0
04/11:08am 18.1 13.1 9.7 58 4.4 WSW 26 59 14 32 1001.4 1001.4 0.0
04/11:00am 18.1 12.3 9.5 57 4.5 W 30 41 16 22 1001.8 1001.8 0.0
04/10:30am 17.8 15.5 8.9 56 4.6 WNW 11 26 6 14 1002.2 1002.1 0.0
04/10:00am 17.2 14.7 8.1 55 4.7 NW 11 19 6 10 1002.2 1002.1 0.0
04/09:30am 16.7 12.3 8.9 60 4.0 NNW 22 35 12 19 1002.5 1002.4 0.0
04/09:00am 16.3 13.0 9.7 65 3.5 N 17 30 9 16 1002.7 1002.6 0.0
04/08:30am 16.0 12.9 8.7 62 3.7 N 15 26 8 14 1002.9 1002.8 0.0
04/08:00am 16.0 12.8 9.9 67 3.2 N 17 22 9 12 1003.0 1002.9 0.0
04/07:30am 15.8 12.6 8.5 62 3.7 NNW 15 28 8 15 1003.0 1002.9 0.0

Other Formats:

Comma delimited format used in spreadsheet applications
http://www.bom.gov.au/fwo/IDT60801/IDT60801.94988.axf

JavaScript Object Notation format (JSON) in row-major order
http://www.bom.gov.au/fwo/IDT60801/IDT60801.94988.json